createdAt,value
2018-12-10T00:00:34.893Z,851.26
2018-12-10T00:01:34.760Z,851.30
2018-12-10T00:02:34.626Z,851.26
2018-12-10T00:03:34.491Z,851.25
2018-12-10T00:04:34.361Z,851.30
2018-12-10T00:05:34.226Z,851.38
2018-12-10T00:06:34.094Z,851.40
2018-12-10T00:07:33.961Z,851.41
2018-12-10T00:08:33.828Z,851.37
2018-12-10T00:09:33.690Z,851.38
2018-12-10T00:10:41.356Z,851.39
2018-12-10T00:11:33.423Z,851.37
2018-12-10T00:12:33.292Z,851.36
2018-12-10T00:13:33.155Z,851.39
2018-12-10T00:14:33.025Z,851.35
2018-12-10T00:15:32.900Z,851.34
2018-12-10T00:16:32.754Z,851.37
2018-12-10T00:17:32.621Z,851.39
2018-12-10T00:18:32.489Z,851.39
2018-12-10T00:19:32.354Z,851.36
2018-12-10T00:20:32.222Z,851.36
2018-12-10T00:21:32.089Z,851.42
2018-12-10T00:22:31.953Z,851.46
2018-12-10T00:23:31.819Z,851.47
2018-12-10T00:24:31.690Z,851.38
2018-12-10T00:25:31.554Z,851.43
2018-12-10T00:26:31.429Z,851.43
2018-12-10T00:27:31.290Z,851.45
2018-12-10T00:28:31.152Z,851.45
2018-12-10T00:29:31.019Z,851.43
2018-12-10T00:30:30.885Z,851.44
2018-12-10T00:31:30.751Z,851.43
2018-12-10T00:32:30.617Z,851.45
2018-12-10T00:33:30.482Z,851.42
2018-12-10T00:34:30.349Z,851.40
2018-12-10T00:35:30.333Z,851.36
2018-12-10T00:36:30.081Z,851.35
2018-12-10T00:37:29.947Z,851.38
2018-12-10T00:38:29.815Z,851.43
2018-12-10T00:39:29.680Z,851.39
2018-12-10T00:40:29.545Z,851.40
2018-12-10T00:41:29.504Z,851.51
2018-12-10T00:42:29.281Z,851.63
2018-12-10T00:43:29.144Z,851.66
2018-12-10T00:44:29.011Z,851.70
2018-12-10T00:45:28.877Z,851.73
2018-12-10T00:46:28.743Z,851.71
2018-12-10T00:47:28.610Z,851.74
2018-12-10T00:48:28.476Z,851.74
2018-12-10T00:49:28.344Z,851.78
2018-12-10T00:50:28.216Z,851.72
2018-12-10T00:51:28.073Z,851.79
2018-12-10T00:52:27.941Z,851.94
2018-12-10T00:53:27.808Z,851.95
2018-12-10T00:54:27.673Z,851.94
2018-12-10T00:55:27.539Z,851.76
2018-12-10T00:56:27.406Z,851.79
2018-12-10T00:57:27.271Z,851.93
2018-12-10T00:58:27.142Z,851.98
2018-12-10T00:59:27.004Z,852.06
2018-12-10T01:00:26.870Z,852.05
2018-12-10T01:01:26.737Z,852.10
2018-12-10T01:02:26.601Z,852.13
2018-12-10T01:03:26.468Z,852.08
2018-12-10T01:04:26.338Z,852.10
2018-12-10T01:05:26.201Z,852.05
2018-12-10T01:06:26.069Z,852.11
2018-12-10T01:07:25.932Z,852.16
2018-12-10T01:08:25.799Z,852.18
2018-12-10T01:09:25.671Z,852.14
2018-12-10T01:10:25.529Z,852.16
2018-12-10T01:11:25.402Z,852.11
2018-12-10T01:12:25.265Z,852.15
2018-12-10T01:13:25.129Z,852.18
2018-12-10T01:14:25.002Z,852.17
2018-12-10T01:15:24.860Z,852.17
2018-12-10T01:16:24.731Z,852.21
2018-12-10T01:17:24.594Z,852.23
2018-12-10T01:18:24.461Z,852.28
2018-12-10T01:19:24.327Z,852.39
2018-12-10T01:20:24.194Z,852.48
2018-12-10T01:21:24.062Z,852.53
2018-12-10T01:22:23.926Z,852.51
2018-12-10T01:23:23.792Z,852.50
2018-12-10T01:24:23.659Z,852.51
2018-12-10T01:25:23.526Z,852.58
2018-12-10T01:26:23.391Z,852.65
2018-12-10T01:27:23.259Z,852.58
2018-12-10T01:28:23.124Z,852.56
2018-12-10T01:29:22.994Z,852.59
2018-12-10T01:30:22.857Z,852.63
2018-12-10T01:31:22.724Z,852.69
2018-12-10T01:32:22.593Z,852.64
2018-12-10T01:33:22.456Z,852.65
2018-12-10T01:34:22.324Z,852.65
2018-12-10T01:35:22.191Z,852.66
2018-12-10T01:36:22.055Z,852.69
2018-12-10T01:37:21.919Z,852.72
2018-12-10T01:38:21.786Z,852.72
2018-12-10T01:39:21.652Z,852.78
2018-12-10T01:40:21.521Z,852.79
2018-12-10T01:41:21.388Z,852.81
2018-12-10T01:42:21.254Z,852.91
2018-12-10T01:43:21.118Z,852.93
2018-12-10T01:44:20.985Z,852.94
2018-12-10T01:45:20.851Z,852.92
2018-12-10T01:46:20.716Z,852.94
2018-12-10T01:47:20.584Z,852.89
2018-12-10T01:48:20.449Z,853.03
2018-12-10T01:49:20.316Z,852.99
2018-12-10T01:50:20.181Z,852.95
2018-12-10T01:51:20.057Z,852.97
2018-12-10T01:52:19.913Z,853.03
2018-12-10T01:53:19.780Z,853.11
2018-12-10T01:54:19.644Z,853.07
2018-12-10T01:55:19.512Z,853.08
2018-12-10T01:56:19.379Z,853.00
2018-12-10T01:57:19.248Z,852.99
2018-12-10T01:58:19.109Z,853.02
2018-12-10T01:59:18.974Z,853.11
2018-12-10T02:00:18.852Z,853.15
2018-12-10T02:01:18.710Z,853.12
2018-12-10T02:02:18.576Z,853.06
2018-12-10T02:03:18.438Z,853.03
2018-12-10T02:04:18.306Z,853.13
2018-12-10T02:05:18.173Z,853.16
2018-12-10T02:06:18.069Z,853.21
2018-12-10T02:07:17.903Z,853.12
2018-12-10T02:08:17.769Z,853.15
2018-12-10T02:09:17.641Z,853.08
2018-12-10T02:10:17.501Z,853.10
2018-12-10T02:11:17.368Z,853.13
2018-12-10T02:12:17.234Z,853.19
2018-12-10T02:13:17.101Z,853.21
2018-12-10T02:14:16.965Z,853.12
2018-12-10T02:15:16.833Z,853.04
2018-12-10T02:16:16.699Z,853.01
2018-12-10T02:17:16.567Z,852.94
2018-12-10T02:18:16.433Z,852.99
2018-12-10T02:19:16.299Z,853.02
2018-12-10T02:20:16.166Z,853.10
2018-12-10T02:21:16.031Z,853.02
2018-12-10T02:22:15.898Z,853.08
2018-12-10T02:23:15.762Z,853.07
2018-12-10T02:24:15.632Z,853.19
2018-12-10T02:25:15.495Z,853.16
2018-12-10T02:26:15.362Z,853.04
2018-12-10T02:27:15.231Z,853.16
2018-12-10T02:28:15.096Z,853.19
2018-12-10T02:29:14.960Z,853.22
2018-12-10T02:30:14.828Z,853.23
2018-12-10T02:31:14.693Z,853.22
2018-12-10T02:32:14.560Z,853.19
2018-12-10T02:33:14.532Z,853.26
2018-12-10T02:34:14.290Z,853.22
2018-12-10T02:35:14.157Z,853.19
2018-12-10T02:36:14.025Z,853.17
2018-12-10T02:37:13.890Z,853.18
2018-12-10T02:38:13.755Z,853.20
2018-12-10T02:39:13.623Z,853.17
2018-12-10T02:40:13.492Z,853.18
2018-12-10T02:41:13.357Z,853.18
2018-12-10T02:42:13.223Z,853.13
2018-12-10T02:43:13.089Z,853.15
2018-12-10T02:44:12.954Z,853.14
2018-12-10T02:45:12.820Z,853.18
2018-12-10T02:46:12.685Z,853.22
2018-12-10T02:47:12.552Z,853.27
2018-12-10T02:48:12.419Z,853.24
2018-12-10T02:49:12.283Z,853.20
2018-12-10T02:50:12.151Z,853.22
2018-12-10T02:51:12.015Z,853.20
2018-12-10T02:52:11.883Z,853.19
2018-12-10T02:53:11.748Z,853.20
2018-12-10T02:54:11.614Z,853.17
2018-12-10T02:55:11.489Z,853.17
2018-12-10T02:56:11.436Z,853.16
2018-12-10T02:57:11.213Z,853.16
2018-12-10T02:58:11.080Z,853.16
2018-12-10T02:59:10.947Z,853.13
2018-12-10T03:00:10.811Z,853.17
2018-12-10T03:01:10.678Z,853.14
2018-12-10T03:02:10.547Z,853.18
2018-12-10T03:03:10.408Z,853.16
2018-12-10T03:04:10.281Z,853.15
2018-12-10T03:05:10.152Z,853.10
2018-12-10T03:06:10.007Z,853.11
2018-12-10T03:07:09.873Z,853.13
2018-12-10T03:08:09.741Z,853.12
2018-12-10T03:09:09.606Z,853.15
2018-12-10T03:10:09.474Z,853.16
2018-12-10T03:11:09.336Z,853.20
2018-12-10T03:12:09.205Z,853.24
2018-12-10T03:13:09.072Z,853.22
2018-12-10T03:14:08.934Z,853.25
2018-12-10T03:15:08.806Z,853.26
2018-12-10T03:16:08.667Z,853.27
2018-12-10T03:17:08.531Z,853.27
2018-12-10T03:18:08.398Z,853.24
2018-12-10T03:19:08.263Z,853.20
2018-12-10T03:20:08.129Z,853.24
2018-12-10T03:21:08.010Z,853.17
2018-12-10T03:22:07.858Z,853.22
2018-12-10T03:23:07.724Z,853.23
2018-12-10T03:24:07.596Z,853.23
2018-12-10T03:25:07.456Z,853.22
2018-12-10T03:26:07.325Z,853.25
2018-12-10T03:27:07.189Z,853.29
2018-12-10T03:28:07.052Z,853.32
2018-12-10T03:29:06.922Z,853.33
2018-12-10T03:30:06.800Z,853.32
2018-12-10T03:31:06.651Z,853.34
2018-12-10T03:32:06.533Z,853.36
2018-12-10T03:33:06.408Z,853.40
2018-12-10T03:34:06.253Z,853.42
2018-12-10T03:35:06.115Z,853.35
2018-12-10T03:36:05.980Z,853.34
2018-12-10T03:37:05.846Z,853.42
2018-12-10T03:38:05.710Z,853.46
2018-12-10T03:39:05.579Z,853.46
2018-12-10T03:40:05.444Z,853.44
2018-12-10T03:41:05.312Z,853.48
2018-12-10T03:42:05.175Z,853.47
2018-12-10T03:43:05.041Z,853.51
2018-12-10T03:44:04.934Z,853.50
2018-12-10T03:45:04.773Z,853.50
2018-12-10T03:46:04.637Z,853.49
2018-12-10T03:47:04.505Z,853.42
2018-12-10T03:48:04.370Z,853.42
2018-12-10T03:49:04.237Z,853.42
2018-12-10T03:50:04.106Z,853.46
2018-12-10T03:51:03.968Z,853.50
2018-12-10T03:52:03.833Z,853.45
2018-12-10T03:53:03.701Z,853.35
2018-12-10T03:54:03.564Z,853.34
2018-12-10T03:55:03.437Z,853.39
2018-12-10T03:56:03.294Z,853.39
2018-12-10T03:57:03.161Z,853.40
2018-12-10T03:58:03.032Z,853.40
2018-12-10T03:59:02.897Z,853.40
2018-12-10T04:00:02.761Z,853.39
2018-12-10T04:01:02.626Z,853.39
2018-12-10T04:02:02.492Z,853.37
2018-12-10T04:03:02.359Z,853.39
2018-12-10T04:04:02.224Z,853.41
2018-12-10T04:05:02.092Z,853.44
2018-12-10T04:06:01.955Z,853.46
2018-12-10T04:07:01.819Z,853.44
2018-12-10T04:08:01.687Z,853.41
2018-12-10T04:09:01.552Z,853.45
2018-12-10T04:10:01.419Z,853.47
2018-12-10T04:11:01.284Z,853.43
2018-12-10T04:12:01.149Z,853.52
2018-12-10T04:13:01.016Z,853.51
2018-12-10T04:14:00.882Z,853.51
2018-12-10T04:15:00.748Z,853.53
2018-12-10T04:16:00.615Z,853.59
2018-12-10T04:17:00.480Z,853.65
2018-12-10T04:18:00.349Z,853.56
2018-12-10T04:19:00.210Z,853.62
2018-12-10T04:20:00.076Z,853.71
2018-12-10T04:20:59.944Z,853.62
2018-12-10T04:21:59.807Z,853.65
2018-12-10T04:22:59.674Z,853.65
2018-12-10T04:23:59.540Z,853.61
2018-12-10T04:24:59.405Z,853.60
2018-12-10T04:25:59.288Z,853.60
2018-12-10T04:26:59.139Z,853.65
2018-12-10T04:27:59.005Z,853.75
2018-12-10T04:28:58.871Z,853.78
2018-12-10T04:29:58.734Z,853.74
2018-12-10T04:30:58.604Z,853.74
2018-12-10T04:31:58.470Z,853.73
2018-12-10T04:32:58.335Z,853.69
2018-12-10T04:33:58.202Z,853.68
2018-12-10T04:34:58.064Z,853.70
2018-12-10T04:35:57.933Z,853.73
2018-12-10T04:36:57.797Z,853.76
2018-12-10T04:37:57.662Z,853.79
2018-12-10T04:38:57.528Z,853.77
2018-12-10T04:39:57.399Z,853.73
2018-12-10T04:40:57.259Z,853.78
2018-12-10T04:41:57.134Z,853.74
2018-12-10T04:42:56.988Z,853.72
2018-12-10T04:43:56.858Z,853.56
2018-12-10T04:44:56.721Z,853.73
2018-12-10T04:45:56.590Z,853.74
2018-12-10T04:46:56.451Z,853.74
2018-12-10T04:47:56.318Z,853.74
2018-12-10T04:48:56.184Z,853.72
2018-12-10T04:49:56.047Z,853.70
2018-12-10T04:50:55.916Z,853.75
2018-12-10T04:51:55.781Z,853.75
2018-12-10T04:52:55.647Z,853.79
2018-12-10T04:53:55.513Z,853.81
2018-12-10T04:54:55.378Z,853.80
2018-12-10T04:55:55.243Z,853.82
2018-12-10T04:56:55.108Z,853.74
2018-12-10T04:57:54.976Z,853.64
2018-12-10T04:58:54.840Z,853.66
2018-12-10T04:59:54.702Z,853.74
2018-12-10T05:00:54.569Z,853.78
2018-12-10T05:01:54.448Z,853.73
2018-12-10T05:02:54.300Z,853.71
2018-12-10T05:03:54.166Z,853.66
2018-12-10T05:04:54.122Z,853.62
2018-12-10T05:05:53.896Z,853.64
2018-12-10T05:06:53.855Z,853.78
2018-12-10T05:07:53.626Z,853.78
2018-12-10T05:08:53.494Z,853.75
2018-12-10T05:09:53.361Z,853.70
2018-12-10T05:10:53.227Z,853.75
2018-12-10T05:11:53.087Z,853.62
2018-12-10T05:12:52.953Z,853.74
2018-12-10T05:13:52.819Z,853.79
2018-12-10T05:14:52.684Z,853.84
2018-12-10T05:15:52.567Z,853.89
2018-12-10T05:16:52.414Z,853.93
2018-12-10T05:17:52.279Z,853.92
2018-12-10T05:18:52.147Z,853.89
2018-12-10T05:19:52.011Z,853.80
2018-12-10T05:20:51.882Z,853.88
2018-12-10T05:21:51.739Z,853.94
2018-12-10T05:22:51.607Z,854.02
2018-12-10T05:23:51.473Z,853.96
2018-12-10T05:24:51.337Z,853.92
2018-12-10T05:25:51.203Z,854.03
2018-12-10T05:26:51.068Z,854.03
2018-12-10T05:27:50.932Z,854.02
2018-12-10T05:28:50.799Z,853.98
2018-12-10T05:29:50.665Z,853.95
2018-12-10T05:30:50.534Z,854.07
2018-12-10T05:31:50.395Z,854.02
2018-12-10T05:32:50.260Z,853.97
2018-12-10T05:33:50.125Z,853.98
2018-12-10T05:34:49.992Z,854.01
2018-12-10T05:35:49.856Z,854.00
2018-12-10T05:36:49.722Z,853.99
2018-12-10T05:37:49.586Z,854.04
2018-12-10T05:38:49.456Z,854.04
2018-12-10T05:39:49.320Z,853.99
2018-12-10T05:40:49.182Z,854.00
2018-12-10T05:41:49.050Z,854.05
2018-12-10T05:42:48.941Z,854.05
2018-12-10T05:43:48.778Z,853.93
2018-12-10T05:44:48.646Z,853.93
2018-12-10T05:45:48.509Z,853.95
2018-12-10T05:46:48.373Z,854.09
2018-12-10T05:47:48.242Z,854.07
2018-12-10T05:48:48.189Z,854.00
2018-12-10T05:49:47.974Z,853.92
2018-12-10T05:50:47.836Z,853.91
2018-12-10T05:51:47.706Z,853.89
2018-12-10T05:52:47.566Z,854.02
2018-12-10T05:53:47.430Z,853.94
2018-12-10T05:54:47.297Z,853.97
2018-12-10T05:55:47.161Z,853.98
2018-12-10T05:56:47.111Z,853.90
2018-12-10T05:57:46.891Z,853.90
2018-12-10T05:58:46.757Z,853.87
2018-12-10T05:59:46.621Z,853.80
2018-12-10T06:00:46.498Z,853.79
2018-12-10T06:01:46.351Z,853.78
2018-12-10T06:02:46.216Z,853.74
2018-12-10T06:03:46.082Z,853.66
2018-12-10T06:04:45.951Z,853.72
2018-12-10T06:05:45.811Z,853.76
2018-12-10T06:06:45.680Z,853.81
2018-12-10T06:07:45.543Z,853.74
2018-12-10T06:08:45.407Z,853.83
2018-12-10T06:09:45.271Z,853.75
2018-12-10T06:10:45.138Z,853.66
2018-12-10T06:11:45.002Z,853.71
2018-12-10T06:12:44.871Z,853.66
2018-12-10T06:13:44.730Z,853.77
2018-12-10T06:14:44.597Z,853.82
2018-12-10T06:15:44.462Z,853.80
2018-12-10T06:16:44.330Z,853.73
2018-12-10T06:17:44.195Z,853.64
2018-12-10T06:18:44.058Z,853.53
2018-12-10T06:19:43.923Z,853.45
2018-12-10T06:20:43.788Z,853.48
2018-12-10T06:21:43.655Z,853.64
2018-12-10T06:22:43.519Z,853.69
2018-12-10T06:23:43.388Z,853.65
2018-12-10T06:24:43.271Z,853.57
2018-12-10T06:25:43.115Z,853.48
2018-12-10T06:26:42.979Z,853.44
2018-12-10T06:27:42.845Z,853.49
2018-12-10T06:28:43.768Z,853.52
2018-12-10T06:29:42.575Z,853.54
2018-12-10T06:30:42.438Z,853.61
2018-12-10T06:31:42.307Z,853.59
2018-12-10T06:32:42.172Z,853.55
2018-12-10T06:33:42.034Z,853.49
2018-12-10T06:34:41.899Z,853.48
2018-12-10T06:35:41.765Z,853.48
2018-12-10T06:36:41.631Z,853.41
2018-12-10T06:37:41.494Z,853.44
2018-12-10T06:38:41.361Z,853.47
2018-12-10T06:39:41.227Z,853.40
2018-12-10T06:40:41.090Z,853.50
2018-12-10T06:41:40.957Z,853.55
2018-12-10T06:42:40.821Z,853.50
2018-12-10T06:43:40.688Z,853.44
2018-12-10T06:44:40.551Z,853.50
2018-12-10T06:45:40.417Z,853.56
2018-12-10T06:46:40.281Z,853.57
2018-12-10T06:47:40.146Z,853.54
2018-12-10T06:48:40.012Z,853.54
2018-12-10T06:49:39.876Z,853.58
2018-12-10T06:50:39.744Z,853.64
2018-12-10T06:51:39.627Z,853.50
2018-12-10T06:52:39.472Z,853.54
2018-12-10T06:53:39.334Z,853.62
2018-12-10T06:54:39.201Z,853.57
2018-12-10T06:55:39.068Z,853.65
2018-12-10T06:56:38.933Z,853.77
2018-12-10T06:57:38.795Z,853.84
2018-12-10T06:58:38.664Z,853.74
2018-12-10T06:59:38.527Z,853.68
2018-12-10T07:00:38.393Z,853.75
2018-12-10T07:01:38.263Z,853.81
2018-12-10T07:02:38.123Z,853.74
2018-12-10T07:03:37.989Z,853.71
2018-12-10T07:04:37.853Z,853.67
2018-12-10T07:05:37.715Z,853.60
2018-12-10T07:06:37.582Z,853.63
2018-12-10T07:07:37.449Z,853.74
2018-12-10T07:08:37.313Z,853.62
2018-12-10T07:09:37.181Z,853.62
2018-12-10T07:10:37.042Z,853.68
2018-12-10T07:11:36.907Z,853.70
2018-12-10T07:12:36.776Z,853.57
2018-12-10T07:13:36.637Z,853.55
2018-12-10T07:14:36.509Z,853.60
2018-12-10T07:15:36.367Z,853.66
2018-12-10T07:16:36.230Z,853.61
2018-12-10T07:17:36.100Z,853.55
2018-12-10T07:18:35.963Z,853.60
2018-12-10T07:19:35.828Z,853.69
2018-12-10T07:20:35.693Z,853.68
2018-12-10T07:21:35.558Z,853.73
2018-12-10T07:22:35.423Z,853.73
2018-12-10T07:23:35.289Z,853.70
2018-12-10T07:24:35.157Z,853.76
2018-12-10T07:25:35.017Z,853.73
2018-12-10T07:26:34.886Z,853.78
2018-12-10T07:27:34.752Z,853.60
2018-12-10T07:28:34.620Z,853.59
2018-12-10T07:29:34.477Z,853.61
2018-12-10T07:30:41.287Z,853.65
2018-12-10T07:31:34.209Z,853.69
2018-12-10T07:32:34.075Z,853.79
2018-12-10T07:33:33.940Z,853.86
2018-12-10T07:34:33.806Z,853.89
2018-12-10T07:35:33.671Z,853.86
2018-12-10T07:36:33.538Z,853.77
2018-12-10T07:37:33.401Z,853.71
2018-12-10T07:38:33.266Z,853.66
2018-12-10T07:39:33.131Z,853.72
2018-12-10T07:40:32.999Z,853.80
2018-12-10T07:41:32.883Z,853.83
2018-12-10T07:42:32.731Z,853.88
2018-12-10T07:43:32.645Z,853.91
2018-12-10T07:44:32.478Z,853.95
2018-12-10T07:45:32.324Z,853.90
2018-12-10T07:46:32.190Z,853.81
2018-12-10T07:47:32.066Z,853.85
2018-12-10T07:48:32.003Z,853.89
2018-12-10T07:49:31.786Z,853.83
2018-12-10T07:50:31.659Z,853.83
2018-12-10T07:51:31.518Z,853.82
2018-12-10T07:52:31.384Z,853.75
2018-12-10T07:53:31.251Z,853.73
2018-12-10T07:54:31.134Z,853.84
2018-12-10T07:55:31.004Z,853.86
2018-12-10T07:56:30.864Z,853.80
2018-12-10T07:57:30.741Z,853.83
2018-12-10T07:58:30.590Z,853.84
2018-12-10T07:59:30.442Z,853.99
2018-12-10T08:00:30.309Z,854.02
2018-12-10T08:01:30.174Z,854.11
2018-12-10T08:02:30.038Z,854.09
2018-12-10T08:03:30.013Z,853.91
2018-12-10T08:04:29.790Z,853.83
2018-12-10T08:05:29.643Z,853.97
2018-12-10T08:06:29.501Z,853.97
2018-12-10T08:07:29.389Z,853.88
2018-12-10T08:08:29.259Z,853.86
2018-12-10T08:09:29.101Z,853.76
2018-12-10T08:10:28.984Z,853.82
2018-12-10T08:11:28.884Z,853.95
2018-12-10T08:12:28.697Z,853.88
2018-12-10T08:13:28.561Z,853.93
2018-12-10T08:14:28.436Z,854.02
2018-12-10T08:15:28.360Z,853.94
2018-12-10T08:16:28.156Z,853.86
2018-12-10T08:17:28.018Z,853.83
2018-12-10T08:18:27.885Z,853.82
2018-12-10T08:19:27.750Z,853.85
2018-12-10T08:20:27.656Z,853.73
2018-12-10T08:21:27.498Z,853.76
2018-12-10T08:22:27.371Z,853.96
2018-12-10T08:23:27.232Z,854.00
2018-12-10T08:24:27.083Z,853.96
2018-12-10T08:25:26.959Z,853.86
2018-12-10T08:26:26.830Z,853.87
2018-12-10T08:27:26.678Z,853.92
2018-12-10T08:28:26.538Z,853.95
2018-12-10T08:29:26.405Z,853.99
2018-12-10T08:30:26.271Z,853.95
2018-12-10T08:31:26.135Z,853.99
2018-12-10T08:32:26.045Z,853.98
2018-12-10T08:33:25.900Z,854.00
2018-12-10T08:34:25.735Z,854.07
2018-12-10T08:35:25.685Z,854.08
2018-12-10T08:36:25.460Z,853.97
2018-12-10T08:37:25.328Z,853.91
2018-12-10T08:38:25.210Z,853.96
2018-12-10T08:39:25.057Z,854.11
2018-12-10T08:40:25.008Z,854.17
2018-12-10T08:41:24.805Z,854.19
2018-12-10T08:42:24.667Z,854.26
2018-12-10T08:43:24.519Z,854.22
2018-12-10T08:44:24.391Z,854.01
2018-12-10T08:45:24.250Z,853.93
2018-12-10T08:46:24.118Z,854.15
2018-12-10T08:47:24.014Z,854.11
2018-12-10T08:48:23.855Z,854.12
2018-12-10T08:49:23.715Z,853.97
2018-12-10T08:50:23.579Z,854.08
2018-12-10T08:51:23.468Z,854.22
2018-12-10T08:52:23.311Z,854.37
2018-12-10T08:53:23.222Z,854.39
2018-12-10T08:54:23.041Z,854.33
2018-12-10T08:55:22.931Z,854.15
2018-12-10T08:56:22.776Z,854.00
2018-12-10T08:57:22.638Z,854.20
2018-12-10T08:58:22.502Z,854.23
2018-12-10T08:59:22.369Z,854.41
2018-12-10T09:00:22.235Z,854.65
2018-12-10T09:01:22.099Z,854.66
2018-12-10T09:02:21.964Z,854.31
2018-12-10T09:03:21.831Z,854.24
2018-12-10T09:04:21.697Z,854.26
2018-12-10T09:05:21.565Z,854.58
2018-12-10T09:06:21.426Z,854.52
2018-12-10T09:07:21.296Z,854.59
2018-12-10T09:08:21.158Z,854.39
2018-12-10T09:09:21.042Z,854.01
2018-12-10T09:10:20.889Z,854.47
2018-12-10T09:11:20.756Z,854.43
2018-12-10T09:12:20.620Z,854.24
2018-12-10T09:13:20.485Z,854.19
2018-12-10T09:14:20.350Z,854.30
2018-12-10T09:15:20.215Z,854.23
2018-12-10T09:16:20.081Z,854.18
2018-12-10T09:17:19.946Z,854.30
2018-12-10T09:18:19.812Z,854.43
2018-12-10T09:19:19.685Z,854.37
2018-12-10T09:20:19.544Z,854.19
2018-12-10T09:21:19.405Z,854.32
2018-12-10T09:22:19.270Z,854.45
2018-12-10T09:23:19.138Z,854.63
2018-12-10T09:24:19.003Z,854.90
2018-12-10T09:25:18.867Z,854.66
2018-12-10T09:26:18.736Z,854.23
2018-12-10T09:27:18.599Z,854.20
2018-12-10T09:28:19.597Z,854.52
2018-12-10T09:29:18.329Z,854.76
2018-12-10T09:30:18.194Z,854.79
2018-12-10T09:31:18.062Z,854.76
2018-12-10T09:32:17.928Z,854.69
2018-12-10T09:33:17.792Z,854.59
2018-12-10T09:34:17.657Z,854.36
2018-12-10T09:35:17.522Z,854.38
2018-12-10T09:36:17.387Z,854.59
2018-12-10T09:37:17.252Z,854.69
2018-12-10T09:38:17.118Z,854.72
2018-12-10T09:39:16.986Z,854.79
2018-12-10T09:40:16.854Z,854.66
2018-12-10T09:41:16.716Z,854.59
2018-12-10T09:42:16.725Z,854.75
2018-12-10T09:43:16.452Z,854.82
2018-12-10T09:44:16.314Z,854.72
2018-12-10T09:45:16.181Z,854.57
2018-12-10T09:46:16.043Z,854.49
2018-12-10T09:47:15.911Z,854.57
2018-12-10T09:48:15.773Z,854.77
2018-12-10T09:49:15.639Z,854.99
2018-12-10T09:50:15.508Z,855.02
2018-12-10T09:51:15.370Z,855.00
2018-12-10T09:52:15.235Z,854.80
2018-12-10T09:53:15.109Z,854.60
2018-12-10T09:54:14.968Z,854.81
2018-12-10T09:55:14.832Z,854.88
2018-12-10T09:56:14.697Z,855.06
2018-12-10T09:57:14.564Z,855.14
2018-12-10T09:58:14.429Z,855.13
2018-12-10T09:59:14.295Z,855.03
2018-12-10T10:00:14.164Z,855.01
2018-12-10T10:01:14.032Z,855.14
2018-12-10T10:02:13.892Z,855.05
2018-12-10T10:03:13.774Z,855.07
2018-12-10T10:04:13.624Z,855.03
2018-12-10T10:05:13.490Z,855.14
2018-12-10T10:06:13.353Z,855.17
2018-12-10T10:07:13.224Z,855.19
2018-12-10T10:08:13.097Z,855.12
2018-12-10T10:09:12.954Z,855.01
2018-12-10T10:10:12.818Z,855.06
2018-12-10T10:11:12.683Z,855.26
2018-12-10T10:12:12.551Z,855.40
2018-12-10T10:13:12.415Z,855.52
2018-12-10T10:14:12.281Z,855.61
2018-12-10T10:15:12.146Z,855.35
2018-12-10T10:16:12.014Z,855.08
2018-12-10T10:17:11.879Z,854.92
2018-12-10T10:18:11.743Z,855.01
2018-12-10T10:19:11.610Z,855.21
2018-12-10T10:20:11.479Z,855.32
2018-12-10T10:21:11.653Z,855.28
2018-12-10T10:22:11.216Z,855.24
2018-12-10T10:23:11.073Z,855.10
2018-12-10T10:24:10.937Z,855.22
2018-12-10T10:25:10.802Z,855.29
2018-12-10T10:26:10.670Z,855.27
2018-12-10T10:27:10.534Z,855.32
2018-12-10T10:28:10.405Z,855.31
2018-12-10T10:29:10.267Z,855.35
2018-12-10T10:30:10.130Z,855.28
2018-12-10T10:31:09.996Z,855.22
2018-12-10T10:32:09.864Z,855.35
2018-12-10T10:33:09.728Z,855.46
2018-12-10T10:34:09.593Z,855.54
2018-12-10T10:35:09.460Z,855.41
2018-12-10T10:36:09.347Z,855.21
2018-12-10T10:37:09.190Z,855.30
2018-12-10T10:38:09.058Z,855.39
2018-12-10T10:39:08.924Z,855.40
2018-12-10T10:40:08.793Z,855.41
2018-12-10T10:41:08.657Z,855.39
2018-12-10T10:42:08.523Z,855.31
2018-12-10T10:43:08.454Z,855.29
2018-12-10T10:44:08.256Z,855.40
2018-12-10T10:45:08.120Z,855.55
2018-12-10T10:46:07.987Z,855.46
2018-12-10T10:47:07.854Z,855.42
2018-12-10T10:48:07.720Z,855.34
2018-12-10T10:49:07.586Z,855.34
2018-12-10T10:50:07.452Z,855.24
2018-12-10T10:51:07.317Z,855.24
2018-12-10T10:52:07.188Z,855.35
2018-12-10T10:53:07.052Z,855.37
2018-12-10T10:54:06.916Z,855.36
2018-12-10T10:55:06.785Z,855.30
2018-12-10T10:56:06.651Z,855.29
2018-12-10T10:57:06.519Z,855.28
2018-12-10T10:58:06.383Z,855.37
2018-12-10T10:59:06.248Z,855.51
2018-12-10T11:00:06.117Z,855.57
2018-12-10T11:01:05.983Z,855.53
2018-12-10T11:02:05.849Z,855.41
2018-12-10T11:03:05.727Z,855.30
2018-12-10T11:04:05.584Z,855.35
2018-12-10T11:05:05.447Z,855.36
2018-12-10T11:06:05.335Z,855.37
2018-12-10T11:07:05.194Z,855.63
2018-12-10T11:08:05.050Z,855.66
2018-12-10T11:09:04.917Z,855.60
2018-12-10T11:10:04.783Z,855.63
2018-12-10T11:11:04.660Z,855.49
2018-12-10T11:12:04.516Z,855.45
2018-12-10T11:13:04.382Z,855.32
2018-12-10T11:14:04.251Z,855.44
2018-12-10T11:15:04.117Z,855.43
2018-12-10T11:16:03.984Z,855.45
2018-12-10T11:17:03.863Z,855.53
2018-12-10T11:18:03.721Z,855.49
2018-12-10T11:19:03.583Z,855.49
2018-12-10T11:20:03.450Z,855.55
2018-12-10T11:21:03.314Z,855.59
2018-12-10T11:22:03.183Z,855.69
2018-12-10T11:23:03.052Z,855.64
2018-12-10T11:24:02.923Z,855.60
2018-12-10T11:25:02.786Z,855.56
2018-12-10T11:26:02.650Z,855.72
2018-12-10T11:27:02.519Z,855.67
2018-12-10T11:28:02.384Z,855.53
2018-12-10T11:29:02.250Z,855.58
2018-12-10T11:30:02.116Z,855.56
2018-12-10T11:31:01.986Z,855.59
2018-12-10T11:32:01.851Z,855.54
2018-12-10T11:33:01.726Z,855.56
2018-12-10T11:34:01.584Z,855.57
2018-12-10T11:35:01.456Z,855.58
2018-12-10T11:36:01.320Z,855.56
2018-12-10T11:37:01.185Z,855.48
2018-12-10T11:38:01.056Z,855.48
2018-12-10T11:39:00.941Z,855.55
2018-12-10T11:40:00.788Z,855.63
2018-12-10T11:41:00.654Z,855.68
2018-12-10T11:42:00.521Z,855.59
2018-12-10T11:43:00.388Z,855.58
2018-12-10T11:44:00.255Z,855.67
2018-12-10T11:45:00.122Z,855.69
2018-12-10T11:45:59.989Z,855.75
2018-12-10T11:46:59.881Z,855.74
2018-12-10T11:47:59.725Z,855.36
2018-12-10T11:48:59.590Z,855.18
2018-12-10T11:49:59.459Z,855.36
2018-12-10T11:50:59.325Z,855.34
2018-12-10T11:51:59.193Z,855.38
2018-12-10T11:52:59.059Z,855.23
2018-12-10T11:53:58.926Z,855.17
2018-12-10T11:54:58.792Z,855.19
2018-12-10T11:55:58.665Z,855.28
2018-12-10T11:56:58.527Z,855.33
2018-12-10T11:57:58.392Z,855.41
2018-12-10T11:58:58.260Z,855.54
2018-12-10T11:59:58.129Z,855.59
2018-12-10T12:00:57.994Z,855.59
2018-12-10T12:01:57.862Z,855.51
2018-12-10T12:02:57.729Z,855.38
2018-12-10T12:03:57.596Z,855.39
2018-12-10T12:04:57.460Z,855.40
2018-12-10T12:05:57.328Z,855.33
2018-12-10T12:06:57.199Z,855.37
2018-12-10T12:07:57.061Z,855.35
2018-12-10T12:08:56.968Z,855.39
2018-12-10T12:09:56.795Z,855.43
2018-12-10T12:10:56.668Z,855.46
2018-12-10T12:11:56.527Z,855.48
2018-12-10T12:12:56.396Z,855.47
2018-12-10T12:13:56.264Z,855.40
2018-12-10T12:14:56.133Z,855.41
2018-12-10T12:15:55.995Z,855.37
2018-12-10T12:16:55.863Z,855.42
2018-12-10T12:17:55.732Z,855.58
2018-12-10T12:18:57.606Z,855.47
2018-12-10T12:19:55.465Z,855.38
2018-12-10T12:20:55.330Z,855.42
2018-12-10T12:21:55.197Z,855.45
2018-12-10T12:22:55.066Z,855.52
2018-12-10T12:23:54.931Z,855.61
2018-12-10T12:24:54.799Z,855.63
2018-12-10T12:25:54.667Z,855.48
2018-12-10T12:26:54.534Z,855.33